Time;durP1;ratioP1;P1;durP2;ratioP2;P2;SDS_P1;SDS_P2;PMS_P1;PMS_P2;Temp;Humidity;BMP_temperature;BMP_pressure;BME280_temperature;BME280_humidity;BME280_pressure;Samples;Min_cycle;Max_cycle;Signal;HPM_P1;HPM_P2
2022/12/15 00:40:41;;;;;;;20.25;7.93;;;;;;;-6.86;55.30;100365.94;5042047;28;20033;-66
2022/12/15 00:43:10;;;;;;;13.30;6.93;;;;;;;-6.62;54.01;100359.66;5027203;28;20094;-68
2022/12/15 00:48:20;;;;;;;21.73;8.52;;;;;;;-6.43;53.93;100354.16;5026877;28;20515;-66
2022/12/15 00:50:55;;;;;;;25.95;7.70;;;;;;;-6.36;53.37;100351.75;5025321;28;20033;-65
2022/12/15 01:20:52;;;;;;;14.55;6.18;;;;;;;-5.73;56.08;100351.31;5023919;28;20614;-68
2022/12/15 01:23:18;;;;;;;13.88;5.68;;;;;;;-5.52;55.59;100350.00;5030824;28;20049;-69
2022/12/15 01:25:43;;;;;;;19.95;7.40;;;;;;;-5.40;55.03;100348.50;5025694;28;20048;-70
2022/12/15 01:28:09;;;;;;;16.77;5.93;;;;;;;-5.70;55.46;100351.38;5027974;28;20045;-67
2022/12/15 01:30:34;;;;;;;14.13;6.28;;;;;;;-5.79;55.38;100356.31;5025094;28;20037;-64
2022/12/15 01:33:00;;;;;;;19.00;8.55;;;;;;;-6.24;56.45;100372.34;5023207;28;20525;-62
2022/12/15 01:35:26;;;;;;;18.27;7.47;;;;;;;-6.21;55.95;100369.88;5023547;28;20301;-63
2022/12/15 01:37:52;;;;;;;17.20;5.82;;;;;;;-5.99;55.24;100383.91;5024763;28;20043;-67
2022/12/15 01:43:10;;;;;;;17.85;7.30;;;;;;;-6.07;55.12;100376.09;5025872;28;20263;-65
2022/12/15 01:45:59;;;;;;;15.65;7.05;;;;;;;-6.22;55.79;100373.25;5021979;28;20037;-63
2022/12/15 01:48:39;;;;;;;11.90;6.28;;;;;;;-6.22;55.36;100375.78;5024409;28;20060;-63
2022/12/15 01:51:21;;;;;;;16.60;6.18;;;;;;;-6.46;56.17;100377.00;5025850;28;20045;-67
2022/12/15 01:53:59;;;;;;;15.20;5.90;;;;;;;-5.99;54.94;100374.59;5022310;28;20057;-64
2022/12/15 01:56:26;;;;;;;13.35;6.78;;;;;;;-6.42;56.34;100394.03;5023799;28;20064;-65
2022/12/15 01:58:55;;;;;;;14.98;8.05;;;;;;;-6.18;55.63;100411.50;5026492;28;20171;-68
2022/12/15 02:01:22;;;;;;;17.37;7.57;;;;;;;-5.85;54.17;100412.16;5011615;28;20037;-68
2022/12/15 02:03:48;;;;;;;13.25;6.78;;;;;;;-5.90;54.61;100413.78;5015498;28;20376;-68
2022/12/15 02:06:14;;;;;;;14.60;6.18;;;;;;;-6.15;55.04;100415.81;5026727;28;20068;-68
2022/12/15 02:08:42;;;;;;;14.70;7.05;;;;;;;-6.23;55.46;100415.63;5027009;28;20092;-68
2022/12/15 02:11:45;;;;;;;18.13;7.95;;;;;;;-5.74;54.31;100404.75;5013664;28;20621;-68
2022/12/15 02:14:19;;;;;;;15.00;6.82;;;;;;;-5.68;53.47;100400.63;5024049;28;20061;-66
2022/12/15 02:16:56;;;;;;;16.45;8.20;;;;;;;-5.85;54.07;100407.09;5026087;28;20090;-68
2022/12/15 02:19:24;;;;;;;12.52;7.30;;;;;;;-5.71;53.47;100410.75;5029823;28;20051;-67
2022/12/15 02:22:20;;;;;;;11.40;5.97;;;;;;;-5.73;52.99;100412.41;5027399;28;20030;-68
2022/12/15 02:25:23;;;;;;;12.43;5.53;;;;;;;-5.77;52.87;100410.66;5025472;28;20470;-68
2022/12/15 02:27:52;;;;;;;14.75;6.68;;;;;;;-5.93;54.06;100411.16;5028407;28;20045;-69
2022/12/15 02:30:19;;;;;;;12.77;6.45;;;;;;;-5.93;54.25;100423.88;5026985;28;20087;-67
2022/12/15 02:33:11;;;;;;;17.55;7.13;;;;;;;-6.16;54.94;100421.72;5026364;28;20048;-68
2022/12/15 02:36:05;;;;;;;16.48;6.22;;;;;;;-5.94;54.93;100412.00;5027232;28;20025;-67
2022/12/15 02:38:37;;;;;;;12.65;6.05;;;;;;;-5.75;54.20;100416.59;5027755;28;20311;-68
2022/12/15 02:41:23;;;;;;;15.52;7.07;;;;;;;-5.67;54.09;100409.97;5027597;28;20039;-68
2022/12/15 02:43:49;;;;;;;18.35;6.93;;;;;;;-5.57;53.29;100406.78;5026469;28;20502;-68
2022/12/15 02:46:34;;;;;;;13.63;6.15;;;;;;;-5.55;53.40;100406.78;5045163;28;20034;-67
2022/12/15 02:49:08;;;;;;;13.68;5.47;;;;;;;-5.67;53.21;100401.50;5027186;28;20096;-67
2022/12/15 02:52:18;;;;;;;12.23;6.38;;;;;;;-5.71;52.96;100402.25;5029835;28;20215;-68
2022/12/15 02:55:00;;;;;;;13.00;4.72;;;;;;;-5.80;52.84;100392.75;5027814;28;20095;-68
2022/12/15 02:57:52;;;;;;;12.77;6.63;;;;;;;-6.00;53.81;100392.34;5027600;28;20045;-67
2022/12/15 03:00:18;;;;;;;12.80;5.63;;;;;;;-5.97;53.91;100390.75;5026808;28;20557;-68
2022/12/15 03:02:48;;;;;;;18.23;6.32;;;;;;;-5.87;53.61;100388.38;5030651;28;20155;-69
2022/12/15 03:05:15;;;;;;;12.43;5.90;;;;;;;-5.96;53.48;100394.13;5043437;28;20033;-68
2022/12/15 03:07:41;;;;;;;14.18;5.57;;;;;;;-6.07;53.87;100393.91;5016432;28;20133;-68
2022/12/15 03:10:09;;;;;;;11.30;5.53;;;;;;;-6.06;53.80;100403.28;5008238;28;20076;-68
2022/12/15 03:12:34;;;;;;;15.63;6.50;;;;;;;-6.07;53.65;100400.69;5005731;28;20194;-65
2022/12/15 03:15:00;;;;;;;9.73;5.90;;;;;;;-6.16;53.86;100401.34;5009264;28;20037;-66
2022/12/15 03:17:25;;;;;;;14.68;6.07;;;;;;;-6.19;53.83;100398.75;5006334;28;20152;-65
2022/12/15 03:19:51;;;;;;;11.60;6.05;;;;;;;-6.20;53.59;100404.66;5009342;28;20045;-65
2022/12/15 03:22:17;;;;;;;12.55;6.47;;;;;;;-6.27;53.72;100403.66;5011056;28;20049;-66
2022/12/15 03:24:42;;;;;;;16.77;6.30;;;;;;;-6.27;53.27;100410.44;5011208;28;20038;-65
2022/12/15 03:27:07;;;;;;;14.68;6.40;;;;;;;-6.29;53.47;100404.47;5029921;28;20048;-66
2022/12/15 03:29:33;;;;;;;12.05;4.97;;;;;;;-6.39;53.74;100406.81;5034836;28;20064;-64
2022/12/15 03:31:58;;;;;;;14.38;5.78;;;;;;;-6.29;53.46;100409.56;5026875;28;20247;-64
2022/12/15 03:34:24;;;;;;;10.88;6.30;;;;;;;-6.44;53.58;100410.09;5021923;28;20108;-64
2022/12/15 03:36:55;;;;;;;16.80;6.85;;;;;;;-6.49;53.80;100404.88;5042618;28;20037;-66
2022/12/15 03:39:21;;;;;;;9.90;5.68;;;;;;;-6.47;53.68;100408.31;5043726;28;20034;-65
2022/12/15 03:41:48;;;;;;;9.43;4.57;;;;;;;-6.44;53.66;100405.88;5024993;28;20044;-71
2022/12/15 03:44:14;;;;;;;11.75;4.93;;;;;;;-6.50;53.51;100408.25;5027779;28;20489;-70
2022/12/15 03:46:39;;;;;;;11.98;4.90;;;;;;;-6.45;53.91;100416.84;5017995;28;20033;-70
2022/12/15 03:49:05;;;;;;;10.80;5.88;;;;;;;-6.47;54.61;100410.88;5029312;28;20037;-70
2022/12/15 03:51:30;;;;;;;15.48;5.72;;;;;;;-6.34;54.55;100411.16;5041530;28;20068;-70
2022/12/15 03:53:58;;;;;;;14.05;6.13;;;;;;;-6.31;55.85;100403.56;5026572;28;20064;-70
2022/12/15 03:56:24;;;;;;;12.50;4.65;;;;;;;-6.51;56.96;100414.19;5029808;28;20033;-70
2022/12/15 03:58:49;;;;;;;18.77;5.80;;;;;;;-6.42;57.48;100419.47;5025966;28;20510;-70
2022/12/15 04:01:24;;;;;;;12.02;3.70;;;;;;;-6.10;56.46;100418.44;5026824;28;20460;-70
2022/12/15 04:03:49;;;;;;;12.32;4.50;;;;;;;-6.19;56.43;100417.41;5032990;28;20128;-71
2022/12/15 04:06:15;;;;;;;7.38;4.20;;;;;;;-6.06;55.46;100416.00;5027080;28;20577;-70
2022/12/15 04:08:40;;;;;;;6.40;3.60;;;;;;;-6.01;55.59;100422.03;5028714;28;20037;-66
2022/12/15 04:11:05;;;;;;;9.40;4.40;;;;;;;-6.06;55.99;100423.63;5026875;28;20037;-68
2022/12/15 04:13:31;;;;;;;10.73;4.70;;;;;;;-6.25;57.16;100432.53;5034328;28;20422;-67
2022/12/15 04:15:56;;;;;;;12.73;4.05;;;;;;;-6.09;56.63;100430.34;5028243;28;20024;-65
2022/12/15 04:18:22;;;;;;;11.75;4.25;;;;;;;-5.97;56.62;100428.91;5026586;28;20132;-67
2022/12/15 04:20:48;;;;;;;19.02;6.32;;;;;;;-6.04;56.74;100424.53;5029193;28;20037;-67
2022/12/15 04:23:13;;;;;;;17.23;4.35;;;;;;;-6.05;57.12;100424.50;5028609;28;20045;-66
2022/12/15 05:31:50;;;;;;;17.52;5.18;;;;;;;-6.16;57.14;100431.88;5026568;28;20108;-67
2022/12/15 05:34:18;;;;;;;13.60;6.72;;;;;;;-5.96;56.45;100435.72;5026243;28;20625;-68
2022/12/15 05:36:43;;;;;;;17.60;6.70;;;;;;;-6.09;56.38;100443.06;5033699;28;20495;-67
2022/12/15 05:39:08;;;;;;;16.42;6.55;;;;;;;-5.87;55.78;100436.72;5028277;28;20040;-68
2022/12/15 05:41:34;;;;;;;17.02;6.88;;;;;;;-5.86;56.13;100433.34;5025804;28;20037;-68
2022/12/15 05:44:00;;;;;;;17.48;7.63;;;;;;;-6.48;57.86;100439.66;5023959;28;20069;-68
2022/12/15 05:46:25;;;;;;;20.92;7.97;;;;;;;-6.04;57.65;100444.00;5025020;28;20111;-68
2022/12/15 05:48:51;;;;;;;11.77;6.35;;;;;;;-5.96;57.87;100448.44;5023950;28;20168;-68
2022/12/15 05:51:16;;;;;;;16.00;6.00;;;;;;;-5.65;56.69;100445.66;5033930;28;20135;-68
2022/12/15 05:53:42;;;;;;;15.90;7.32;;;;;;;-5.53;56.59;100456.06;5035509;28;20487;-67
2022/12/15 05:56:13;;;;;;;17.17;7.00;;;;;;;-5.18;55.96;100464.38;5033281;28;20033;-66
2022/12/15 05:58:39;;;;;;;11.57;5.13;;;;;;;-5.35;55.86;100473.38;5027836;28;20052;-68
2022/12/15 06:01:06;;;;;;;17.33;7.28;;;;;;;-4.92;55.32;100485.25;5033065;28;20079;-67
2022/12/15 06:03:32;;;;;;;16.40;5.95;;;;;;;-4.72;55.06;100477.94;5028515;28;20049;-67
2022/12/15 06:05:59;;;;;;;15.48;6.95;;;;;;;-4.58;55.02;100478.16;5030576;28;20098;-67
2022/12/15 06:08:27;;;;;;;15.20;6.82;;;;;;;-4.55;54.48;100478.19;5027573;28;20144;-68
2022/12/15 06:10:53;;;;;;;14.38;6.88;;;;;;;-4.45;54.49;100476.66;5023256;28;20037;-72
2022/12/15 06:13:20;;;;;;;13.73;6.13;;;;;;;-4.53;54.55;100480.75;5028117;28;20536;-65
2022/12/15 06:15:59;;;;;;;11.60;5.20;;;;;;;-4.34;54.57;100487.88;5028959;28;20034;-66
2022/12/15 06:18:27;;;;;;;14.98;6.65;;;;;;;-4.34;54.39;100487.88;5027991;28;20138;-65
2022/12/15 06:21:01;;;;;;;16.15;7.03;;;;;;;-4.59;54.46;100488.31;5027865;28;20484;-67
2022/12/15 06:23:28;;;;;;;14.68;6.43;;;;;;;-4.26;54.02;100484.56;5025916;28;20415;-66
2022/12/15 06:25:54;;;;;;;13.55;5.93;;;;;;;-4.21;54.25;100481.28;5044527;28;20535;-67
2022/12/15 06:28:22;;;;;;;12.13;6.45;;;;;;;-4.24;54.01;100483.75;5028756;28;20126;-67
2022/12/15 06:30:54;;;;;;;18.48;5.93;;;;;;;-4.44;54.58;100480.91;5027444;28;20120;-67
2022/12/15 06:33:21;;;;;;;13.03;5.07;;;;;;;-4.23;54.30;100480.38;5029582;28;20053;-66
2022/12/15 06:35:49;;;;;;;14.35;6.57;;;;;;;-4.05;54.14;100489.13;5028620;28;20033;-67
2022/12/15 06:38:15;;;;;;;7.75;5.38;;;;;;;-4.34;54.45;100482.78;5031553;28;20111;-65
2022/12/15 06:40:40;;;;;;;9.98;5.80;;;;;;;-4.30;54.34;100474.34;5028617;28;20120;-67
2022/12/15 06:43:07;;;;;;;17.58;8.10;;;;;;;-4.13;54.30;100486.47;5027592;28;20043;-67
2022/12/15 06:45:33;;;;;;;11.88;5.97;;;;;;;-4.00;54.16;100502.81;5027701;28;20060;-67
2022/12/15 06:47:58;;;;;;;10.52;5.30;;;;;;;-3.98;54.06;100502.00;5025248;28;20581;-67
2022/12/15 06:50:24;;;;;;;16.58;6.25;;;;;;;-3.82;53.97;100499.66;5032512;28;20036;-67
2022/12/15 06:52:49;;;;;;;16.77;6.35;;;;;;;-3.87;54.04;100491.94;5024753;28;20033;-66
2022/12/15 06:55:15;;;;;;;16.75;6.70;;;;;;;-3.89;54.01;100497.03;5027329;28;20041;-66
2022/12/15 06:57:43;;;;;;;19.67;7.57;;;;;;;-3.86;54.37;100500.47;5027421;28;20041;-65
2022/12/15 07:00:09;;;;;;;14.45;6.43;;;;;;;-3.89;54.25;100508.94;5027915;28;20114;-67
2022/12/15 07:02:34;;;;;;;14.23;5.22;;;;;;;-4.05;54.26;100505.31;5027301;28;20049;-67
2022/12/15 07:05:00;;;;;;;11.95;5.25;;;;;;;-4.04;54.47;100501.91;5027963;28;20087;-65
2022/12/15 07:07:26;;;;;;;21.98;10.52;;;;;;;-4.05;54.64;100504.44;5025334;28;20046;-66
2022/12/15 07:09:52;;;;;;;14.57;6.22;;;;;;;-4.20;54.80;100505.94;5042189;28;20041;-66
2022/12/15 07:12:17;;;;;;;11.73;5.22;;;;;;;-4.27;55.18;100509.25;5026346;28;20083;-66
2022/12/15 07:14:43;;;;;;;14.98;5.10;;;;;;;-4.05;54.93;100505.31;5025456;28;20400;-67
2022/12/15 07:17:12;;;;;;;12.32;6.43;;;;;;;-4.06;54.79;100513.78;5026965;28;20053;-66
2022/12/15 07:19:37;;;;;;;15.35;6.18;;;;;;;-4.66;56.05;100519.66;5027427;28;20048;-66
2022/12/15 07:22:03;;;;;;;14.10;6.07;;;;;;;-4.08;55.01;100533.34;5028255;28;20049;-67
2022/12/15 07:24:28;;;;;;;11.18;5.22;;;;;;;-4.05;54.99;100542.72;5025758;28;20033;-65
2022/12/15 07:26:54;;;;;;;12.13;6.22;;;;;;;-3.85;54.63;100540.47;5027191;28;20034;-66
2022/12/15 07:29:20;;;;;;;11.63;5.50;;;;;;;-4.74;56.83;100535.69;5026919;28;20440;-67
2022/12/15 07:31:45;;;;;;;13.43;7.18;;;;;;;-4.27;56.13;100539.00;5024881;28;20071;-67
2022/12/15 07:34:11;;;;;;;14.80;7.80;;;;;;;-4.15;55.94;100529.81;5026654;28;20040;-66
2022/12/15 07:36:36;;;;;;;10.60;5.85;;;;;;;-4.26;55.97;100525.41;5026624;28;20033;-66
2022/12/15 07:39:03;;;;;;;15.32;5.90;;;;;;;-4.16;56.22;100528.13;5026993;28;20567;-67
2022/12/15 07:41:29;;;;;;;12.98;7.00;;;;;;;-4.67;57.60;100530.69;4996715;28;1090439;-67
2022/12/15 07:43:55;;;;;;;16.00;5.43;;;;;;;-3.86;56.17;100531.94;5024966;28;20322;-67
2022/12/15 07:46:20;;;;;;;12.80;5.53;;;;;;;-3.91;55.69;100529.34;5029278;28;20036;-66
2022/12/15 07:48:46;;;;;;;11.85;5.40;;;;;;;-3.80;55.67;100529.50;5040388;28;20571;-66
2022/12/15 07:51:11;;;;;;;17.92;5.97;;;;;;;-3.91;56.61;100528.47;5028702;28;20521;-66
2022/12/15 07:53:37;;;;;;;19.02;6.40;;;;;;;-3.73;56.17;100531.28;5023783;28;20292;-66
2022/12/15 07:56:05;;;;;;;15.05;5.65;;;;;;;-3.90;56.59;100536.19;5028660;28;20041;-67
2022/12/15 07:58:31;;;;;;;17.02;5.25;;;;;;;-4.06;56.54;100546.97;5027279;28;20450;-66
2022/12/15 08:01:02;;;;;;;17.35;5.78;;;;;;;-4.35;57.35;100557.59;5042172;28;20098;-67
2022/12/15 08:03:30;;;;;;;17.02;5.25;;;;;;;-3.82;56.49;100554.16;5026477;28;20053;-67
2022/12/15 08:05:56;;;;;;;10.63;4.93;;;;;;;-3.68;55.96;100550.06;5025314;28;20051;-66
2022/12/15 08:08:22;;;;;;;11.98;4.93;;;;;;;-3.72;55.82;100550.88;5028221;28;20037;-67
2022/12/15 08:10:47;;;;;;;14.85;5.80;;;;;;;-3.77;55.83;100556.75;5036133;28;20033;-66
2022/12/15 08:13:13;;;;;;;11.30;4.47;;;;;;;-3.70;56.15;100554.31;5025568;28;20143;-67
2022/12/15 08:15:40;;;;;;;13.52;5.15;;;;;;;-4.10;57.47;100552.88;5045963;28;20052;-66
2022/12/15 08:18:06;;;;;;;12.98;4.85;;;;;;;-3.88;56.78;100552.34;5039366;28;20049;-69
2022/12/15 08:20:32;;;;;;;6.70;4.32;;;;;;;-3.90;56.77;100566.81;5028733;28;20606;-65
2022/12/15 08:22:58;;;;;;;9.57;5.15;;;;;;;-3.82;56.67;100573.72;5027753;28;20033;-64
2022/12/15 08:25:27;;;;;;;13.77;5.72;;;;;;;-4.06;56.95;100572.50;5028194;28;20029;-66
2022/12/15 08:27:56;;;;;;;8.70;4.00;;;;;;;-3.89;56.71;100567.66;5033436;28;20493;-65
2022/12/15 08:30:22;;;;;;;8.25;3.58;;;;;;;-3.82;56.58;100559.25;5026170;28;20067;-67
2022/12/15 08:32:47;;;;;;;8.88;4.65;;;;;;;-3.71;56.93;100562.81;5024466;28;20128;-67
2022/12/15 08:35:13;;;;;;;8.45;4.20;;;;;;;-3.68;56.68;100565.41;5029096;28;20037;-65
2022/12/15 08:37:38;;;;;;;11.05;4.50;;;;;;;-3.27;55.81;100554.00;5024051;28;20048;-67
2022/12/15 08:40:05;;;;;;;10.18;4.05;;;;;;;-3.61;56.83;100558.66;5028667;28;20041;-68
2022/12/15 08:42:37;;;;;;;19.73;5.93;;;;;;;-3.26;55.58;100553.16;5026098;28;20045;-67
2022/12/15 08:45:03;;;;;;;;;;;;;;;-3.25;55.21;100565.09;5028374;28;20037;-67
2022/12/15 08:47:29;;;;;;;8.68;3.97;;;;;;;-3.21;54.62;100558.31;5026101;28;20377;-66
2022/12/15 08:49:55;;;;;;;6.78;3.72;;;;;;;-3.19;54.71;100565.16;5026315;28;20029;-66
2022/12/15 08:52:21;;;;;;;6.38;3.42;;;;;;;-3.18;54.61;100564.34;5024910;28;20045;-66
2022/12/15 08:54:47;;;;;;;4.38;3.03;;;;;;;-3.47;55.65;100562.28;5040695;28;20167;-66
2022/12/15 08:57:15;;;;;;;9.02;3.83;;;;;;;-3.15;55.38;100559.25;5026046;28;20327;-67
2022/12/15 08:59:43;;;;;;;13.63;3.72;;;;;;;-2.38;53.98;100565.16;5027322;28;20025;-65
2022/12/15 09:02:11;;;;;;;7.13;3.10;;;;;;;-2.75;53.86;100575.03;5027846;28;20053;-67
2022/12/15 09:04:36;;;;;;;12.07;3.65;;;;;;;-2.54;52.90;100578.63;5024558;28;20029;-66
2022/12/15 09:07:03;;;;;;;8.35;3.88;;;;;;;-2.80;53.53;100576.69;5027094;28;20406;-66
2022/12/15 09:09:28;;;;;;;8.07;3.47;;;;;;;-2.81;53.44;100585.19;5026318;28;20040;-65
2022/12/15 09:11:54;;;;;;;8.43;4.43;;;;;;;-2.97;53.68;100585.88;5023288;28;20032;-66
2022/12/15 09:14:19;;;;;;;7.72;3.47;;;;;;;-3.15;54.18;100583.97;5023706;28;20498;-67
2022/12/15 09:16:45;;;;;;;5.60;3.40;;;;;;;-2.38;52.91;100583.06;5041189;28;20449;-67
2022/12/15 09:19:10;;;;;;;8.00;3.70;;;;;;;-2.75;53.20;100577.59;5029689;28;20633;-66
2022/12/15 09:21:36;;;;;;;14.55;4.72;;;;;;;-2.63;53.87;100569.16;5023508;28;20501;-65
2022/12/15 09:24:02;;;;;;;7.35;4.57;;;;;;;-2.21;52.59;100568.69;5041325;28;20056;-66
2022/12/15 09:26:30;;;;;;;6.00;2.83;;;;;;;-3.12;54.33;100573.75;5024878;28;20037;-66
2022/12/15 09:28:56;;;;;;;6.05;3.75;;;;;;;-2.50;53.05;100588.91;5027724;28;20076;-67
2022/12/15 09:31:29;;;;;;;8.40;3.13;;;;;;;-2.98;53.88;100579.03;5023132;28;20683;-65
2022/12/15 09:33:58;;;;;;;11.07;4.28;;;;;;;-2.88;53.56;100589.38;5031065;28;20053;-67
2022/12/15 09:36:24;;;;;;;6.93;3.42;;;;;;;-2.96;54.17;100585.91;5024712;28;20443;-67
2022/12/15 09:38:50;;;;;;;7.28;3.05;;;;;;;-2.55;54.06;100598.25;5026342;28;20057;-65
2022/12/15 09:41:27;;;;;;;7.28;3.75;;;;;;;-2.07;52.82;100603.78;5023357;28;20107;-67
2022/12/15 09:44:00;;;;;;;8.85;3.35;;;;;;;-1.64;51.94;100591.28;5025737;28;20509;-67
2022/12/15 09:46:50;;;;;;;12.32;3.45;;;;;;;-0.87;50.41;100589.94;5026006;28;20045;-67
2022/12/15 09:49:40;;;;;;;5.50;3.60;;;;;;;-1.80;51.20;100601.44;5032561;28;20055;-66
2022/12/15 09:52:10;;;;;;;7.90;3.10;;;;;;;-1.43;50.19;100604.19;5025123;28;20042;-67
2022/12/15 09:54:36;;;;;;;5.85;3.65;;;;;;;-1.30;49.69;100596.59;5025129;28;20056;-65
2022/12/15 09:57:14;;;;;;;9.25;2.97;;;;;;;-1.19;49.74;100608.59;5032602;28;20516;-65
2022/12/15 09:59:54;;;;;;;12.48;4.15;;;;;;;-1.63;50.71;100600.69;5024934;28;20053;-66
2022/12/15 10:02:44;;;;;;;12.95;3.22;;;;;;;-1.09;50.78;100617.19;5024782;28;20122;-66
2022/12/15 10:05:31;;;;;;;4.25;2.47;;;;;;;-1.87;51.04;100612.47;5024970;28;20041;-66
2022/12/15 10:07:59;;;;;;;6.35;2.75;;;;;;;-1.62;50.73;100607.50;5021784;28;20064;-65
2022/12/15 10:10:28;;;;;;;12.20;1.88;;;;;;;-2.10;52.45;100602.06;5026278;28;20063;-67
2022/12/15 10:12:59;;;;;;;5.38;2.83;;;;;;;-1.44;51.00;100604.19;5022733;28;20076;-66
2022/12/15 10:15:27;;;;;;;18.17;3.58;;;;;;;-1.70;50.77;100601.50;5040862;28;20037;-67
2022/12/15 10:18:25;;;;;;;6.65;3.50;;;;;;;-1.80;50.58;100596.31;5023495;28;20556;-68
2022/12/15 10:20:53;;;;;;;6.55;3.88;;;;;;;-2.63;53.45;100600.72;5025887;28;20056;-67
2022/12/15 10:23:19;;;;;;;10.90;3.70;;;;;;;-2.44;53.36;100604.34;5023720;28;20492;-67
2022/12/15 10:26:14;;;;;;;5.25;2.67;;;;;;;-2.25;52.33;100592.53;5027572;28;20045;-66
2022/12/15 10:29:17;;;;;;;8.23;3.75;;;;;;;-2.39;53.22;100601.81;5019760;28;20060;-65
2022/12/15 10:31:57;;;;;;;10.95;2.83;;;;;;;-2.35;53.44;100606.13;5018959;28;20099;-67
2022/12/15 10:34:28;;;;;;;9.95;3.33;;;;;;;-2.76;54.14;100608.25;5026772;28;20034;-66
2022/12/15 10:36:55;;;;;;;8.27;3.50;;;;;;;-2.12;53.55;100621.66;5029097;28;20041;-68
2022/12/15 10:39:22;;;;;;;8.00;3.63;;;;;;;-2.10;52.88;100612.31;5044157;28;20037;-65
2022/12/15 10:42:19;;;;;;;10.73;3.20;;;;;;;-2.37;53.47;100617.19;5027486;28;20037;-67
2022/12/15 10:44:51;;;;;;;6.57;2.92;;;;;;;-2.58;54.23;100617.81;5029205;28;20033;-67
2022/12/15 10:47:32;;;;;;;7.05;3.05;;;;;;;-2.01;52.68;100603.84;5015322;28;20069;-65
2022/12/15 10:50:21;;;;;;;10.30;2.88;;;;;;;-1.97;52.50;100608.13;5042438;28;20038;-66
2022/12/15 10:52:47;;;;;;;10.55;3.42;;;;;;;-2.15;52.83;100608.00;5027027;28;20041;-65
2022/12/15 10:55:42;;;;;;;5.95;3.08;;;;;;;-2.19;52.86;100608.81;5027062;28;20204;-68
2022/12/15 10:58:19;;;;;;;8.18;2.83;;;;;;;-1.81;52.14;100614.22;5029223;28;20100;-65
2022/12/15 11:00:45;;;;;;;7.47;2.78;;;;;;;-2.11;52.41;100619.97;5029360;28;20573;-67
2022/12/15 11:03:35;;;;;;;8.93;3.35;;;;;;;-2.08;52.93;100620.00;5031413;28;20037;-67
2022/12/15 11:06:01;;;;;;;7.43;2.90;;;;;;;-1.26;51.34;100618.84;5036951;28;20029;-67
2022/12/15 11:08:28;;;;;;;7.88;3.00;;;;;;;-1.44;50.82;100620.44;5028107;28;20604;-66
2022/12/15 11:14:03;;;;;;;9.88;3.97;;;;;;;-2.37;54.56;100630.00;5026247;28;20054;-66
2022/12/15 11:16:30;;;;;;;7.80;3.40;;;;;;;-1.45;51.74;100623.84;5026276;28;20048;-67
2022/12/15 11:19:04;;;;;;;6.78;2.97;;;;;;;-1.51;52.26;100628.97;5027708;28;20077;-67
2022/12/15 11:21:43;;;;;;;6.90;2.72;;;;;;;-1.20;51.46;100635.13;5043618;28;20212;-67
2022/12/15 11:24:25;;;;;;;9.65;3.53;;;;;;;-1.12;50.49;100627.44;5043763;28;20405;-64
2022/12/15 11:27:00;;;;;;;8.25;3.95;;;;;;;-1.32;51.16;100629.06;5028139;28;20427;-66
2022/12/15 11:29:33;;;;;;;8.52;3.47;;;;;;;-1.44;51.78;100627.25;5029429;28;20123;-67
2022/12/15 11:31:59;;;;;;;8.20;4.38;;;;;;;-1.12;51.48;100622.31;5026191;28;20099;-68
2022/12/15 11:34:34;;;;;;;15.77;4.50;;;;;;;-0.22;49.85;100624.25;5031045;28;20455;-67
2022/12/15 11:37:09;;;;;;;8.43;3.83;;;;;;;0.21;48.27;100619.13;5029836;28;20079;-68
2022/12/15 11:39:40;;;;;;;14.48;4.05;;;;;;;-0.03;49.40;100624.28;5033501;28;20037;-67
2022/12/15 11:42:38;;;;;;;15.15;3.13;;;;;;;-0.65;49.27;100626.78;5037909;28;20069;-66
2022/12/15 11:45:15;;;;;;;6.50;3.13;;;;;;;-0.66;50.54;100622.50;5033342;28;20033;-68
2022/12/15 11:48:05;;;;;;;9.48;2.85;;;;;;;-1.05;51.20;100623.22;5029318;28;20160;-66
2022/12/15 11:50:47;;;;;;;11.70;4.05;;;;;;;-1.39;51.38;100634.13;5029802;28;20033;-65
2022/12/15 11:53:37;;;;;;;7.13;4.15;;;;;;;-0.48;49.80;100625.94;5042446;28;20528;-66
2022/12/15 11:56:06;;;;;;;8.57;3.40;;;;;;;-1.07;51.48;100624.88;5036480;28;20078;-66
2022/12/15 11:58:49;;;;;;;8.90;3.10;;;;;;;-0.98;51.08;100623.25;5029443;28;20080;-68
2022/12/15 12:01:23;;;;;;;6.47;3.78;;;;;;;-0.64;50.61;100617.34;5026703;28;20070;-68
2022/12/15 12:04:07;;;;;;;9.13;3.72;;;;;;;-0.53;50.03;100618.22;5024146;28;20041;-67
2022/12/15 12:07:01;;;;;;;6.85;3.28;;;;;;;-0.76;50.92;100621.59;5028978;28;20112;-68
2022/12/15 12:09:47;;;;;;;9.70;3.38;;;;;;;-0.79;51.49;100616.47;5011635;28;20135;-68
2022/12/15 12:12:26;;;;;;;6.72;2.90;;;;;;;-0.51;50.64;100618.25;5031004;28;20045;-67
2022/12/15 12:15:00;;;;;;;7.57;3.45;;;;;;;-0.98;51.66;100619.81;5027415;28;20033;-67
2022/12/15 12:17:44;;;;;;;9.85;4.18;;;;;;;-1.06;52.35;100619.81;5047251;28;20040;-67
2022/12/15 12:20:25;;;;;;;8.50;3.88;;;;;;;-1.30;53.08;100611.97;5031439;28;20033;-67
2022/12/15 12:22:54;;;;;;;7.53;3.50;;;;;;;-1.03;52.48;100614.69;5029627;28;20151;-68
2022/12/15 12:25:21;;;;;;;5.55;2.80;;;;;;;-0.76;51.82;100621.59;5029851;28;20072;-67
2022/12/15 12:27:53;;;;;;;6.03;3.22;;;;;;;-0.95;52.06;100621.53;5037039;28;20048;-65
2022/12/15 12:30:25;;;;;;;8.40;3.53;;;;;;;-1.07;52.01;100618.03;5043826;28;20416;-66
2022/12/15 12:33:05;;;;;;;;;;;;;;;-1.25;52.43;100616.25;5029126;28;20041;-66
2022/12/15 12:35:51;;;;;;;11.80;4.05;;;;;;;-0.79;51.69;100610.50;5024540;28;20000;-67
2022/12/15 12:38:23;;;;;;;4.78;3.10;;;;;;;-1.23;52.81;100626.53;5024863;28;20081;-67
2022/12/15 12:40:55;;;;;;;11.85;3.88;;;;;;;-0.99;52.17;100613.84;5039644;28;20221;-67
2022/12/15 12:43:31;;;;;;;4.75;2.72;;;;;;;-0.62;51.46;100619.06;5022415;28;20103;-65
2022/12/15 12:46:20;;;;;;;9.70;3.20;;;;;;;-0.53;51.28;100622.53;5031096;28;20032;-66
2022/12/15 12:49:19;;;;;;;8.82;3.63;;;;;;;-0.38;51.18;100622.53;5024231;28;20048;-66
2022/12/15 12:51:52;;;;;;;12.77;3.35;;;;;;;-0.06;50.12;100629.41;5014655;28;20156;-65
2022/12/15 12:54:33;;;;;;;6.50;3.05;;;;;;;0.09;49.64;100621.69;5024189;28;20029;-66
2022/12/15 12:56:59;;;;;;;7.65;3.30;;;;;;;-0.31;50.55;100624.25;5037158;28;20037;-66
2022/12/15 12:59:27;;;;;;;5.32;2.65;;;;;;;0.09;49.29;100620.84;5021705;28;20071;-65
2022/12/15 13:02:09;;;;;;;6.68;3.22;;;;;;;-0.00;49.38;100619.13;5022870;28;20033;-65
2022/12/15 13:04:40;;;;;;;5.18;2.67;;;;;;;-0.40;50.84;100621.69;5020963;28;20037;-66
2022/12/15 13:07:30;;;;;;;9.40;3.00;;;;;;;-0.26;50.62;100617.44;5025382;28;20096;-67
2022/12/15 13:10:07;;;;;;;7.57;3.50;;;;;;;0.31;50.11;100626.84;5009440;28;21285;-67
2022/12/15 13:12:50;;;;;;;7.32;3.55;;;;;;;0.39;49.16;100619.94;5024146;28;20056;-67
2022/12/15 13:15:28;;;;;;;9.30;3.00;;;;;;;0.09;49.30;100619.13;5024059;28;20029;-65
2022/12/15 13:17:58;;;;;;;5.40;2.78;;;;;;;-0.30;50.48;100615.72;5024545;28;20491;-66
2022/12/15 13:20:29;;;;;;;7.85;3.08;;;;;;;0.78;48.71;100607.84;5022353;28;20031;-67
2022/12/15 13:23:17;;;;;;;8.35;3.65;;;;;;;0.17;49.40;100612.28;5021765;28;20048;-67
2022/12/15 13:25:59;;;;;;;3.88;2.30;;;;;;;0.07;49.19;100606.28;5020917;28;20069;-67
2022/12/15 13:28:34;;;;;;;7.05;3.45;;;;;;;-0.46;50.43;100606.25;5022487;28;20103;-68
2022/12/15 13:31:12;;;;;;;14.93;2.78;;;;;;;-0.20;50.02;100614.00;5023998;28;20029;-67
2022/12/15 13:33:49;;;;;;;9.52;2.55;;;;;;;-0.42;51.21;100605.41;5027234;28;20496;-67
2022/12/15 13:36:36;;;;;;;8.52;3.65;;;;;;;-0.31;50.40;100608.84;5022660;28;20041;-67
2022/12/15 13:39:10;;;;;;;8.00;2.65;;;;;;;-0.07;49.98;100607.16;5023604;28;20167;-66
2022/12/15 13:41:35;;;;;;;6.13;2.95;;;;;;;0.22;49.42;100607.97;5023658;28;20060;-66
2022/12/15 13:44:14;;;;;;;6.72;2.53;;;;;;;-0.54;51.38;100610.53;5022039;28;20207;-65
2022/12/15 13:46:45;;;;;;;6.22;2.88;;;;;;;0.01;50.04;100613.13;5030432;28;20049;-65
2022/12/15 13:49:24;;;;;;;7.63;3.13;;;;;;;0.28;49.42;100610.53;5024326;28;20504;-65
2022/12/15 13:51:59;;;;;;;4.78;2.50;;;;;;;0.01;50.32;100611.44;5023321;28;20102;-67
2022/12/15 13:54:32;;;;;;;8.35;3.42;;;;;;;0.24;49.65;100608.84;5023920;28;20123;-67
2022/12/15 13:57:08;;;;;;;7.40;3.42;;;;;;;-0.36;50.41;100615.69;5022966;28;20429;-67
2022/12/15 13:59:46;;;;;;;9.73;2.95;;;;;;;-0.03;50.06;100619.16;5020804;28;20453;-66
2022/12/15 14:02:33;;;;;;;11.00;3.42;;;;;;;-0.16;50.53;100618.28;5024134;28;20498;-65
2022/12/15 14:05:21;;;;;;;7.05;3.65;;;;;;;-0.02;50.50;100615.72;5026699;28;20060;-67